Abadi — V8V2002 — position and weather

sailwx.info

Track history (hours):
 
Tides and Currents Weather Stations Pressure Air Temp Water Temp Dewpoint Dewpoint Depression Visibility Wind Speed Wind Dir Waves Ship Positions

Abadi

Last reported at 2018-Feb-22 14:49 UTC. Time now 2018-Feb-22 15:19 UTC.
Position N 01°12' E 103°40'.

Type: Ship (hazmat cat A). MMSI: 508011000.

Date/timePositionNaut miles runAvg speedWind from/ knotsBaromVisibWave heightAir tempDewpointWater temp
2018-Feb-22 14:49N 01°12' E 103°40'0 0.0
2018-Feb-22 14:25N 01°12' E 103°40'0 0.0
2018-Feb-22 13:49N 01°12' E 103°40'0 0.0
2018-Feb-22 12:54N 01°12' E 103°40'0 0.0
2018-Feb-22 12:30N 01°12' E 103°40'0 0.0
2018-Feb-22 11:57N 01°12' E 103°40'0 0.0
2018-Feb-22 11:30N 01°12' E 103°40'0 0.0
2018-Feb-22 10:59N 01°12' E 103°40'0 0.0
2018-Feb-22 10:29N 01°12' E 103°40'0 0.1
2018-Feb-22 09:59N 01°12' E 103°40'0 0.0
2018-Feb-22 09:29N 01°12' E 103°40'0 0.1
2018-Feb-22 08:55N 01°12' E 103°40'0 0.1
2018-Feb-22 08:25N 01°12' E 103°40'0 0.1
2018-Feb-22 07:55N 01°12' E 103°41'0 0.0
2018-Feb-22 07:28N 01°12' E 103°41'0 0.1
2018-Feb-22 06:49N 01°12' E 103°40'0 0.0
2018-Feb-22 06:30N 01°12' E 103°40'0 0.0
2018-Feb-22 06:00N 01°12' E 103°40'0 0.1
2018-Feb-22 05:30N 01°12' E 103°40'0 0.1
2018-Feb-22 04:57N 01°12' E 103°40'0 0.0
2018-Feb-22 04:27N 01°12' E 103°40'0 0.2
2018-Feb-22 03:59N 01°12' E 103°40'0 0.0
2018-Feb-22 03:27N 01°12' E 103°40'0 0.1
2018-Feb-22 02:56N 01°12' E 103°40'0 0.1
2018-Feb-22 02:29N 01°12' E 103°40'0 0.1
2018-Feb-22 01:58N 01°12' E 103°40'0 0.0
2018-Feb-22 01:28N 01°12' E 103°40'0 0.1
2018-Feb-22 00:55N 01°12' E 103°41'0 0.1
2018-Feb-22 00:25N 01°12' E 103°41'0 0.0
2018-Feb-21 23:58N 01°12' E 103°41'0 0.0
2018-Feb-21 23:30N 01°12' E 103°41'0 0.2
2018-Feb-21 23:00N 01°12' E 103°41'1 1.5
2018-Feb-21 22:30N 01°12' E 103°40'3 6.0
2018-Feb-21 22:00N 01°12' E 103°37'2 4.2
2018-Feb-21 21:29N 01°12' E 103°35'2 3.7
2018-Feb-21 20:59N 01°11' E 103°33'2 4.8
2018-Feb-21 20:30N 01°11' E 103°31'4 6.4
2018-Feb-21 19:55N 01°11' E 103°27'5 7.3
2018-Feb-21 19:17N 01°13' E 103°23'3 8.1
2018-Feb-21 18:52N 01°15' E 103°20'  
2018-Feb-19 14:15N 01°17' E 103°22'411.7
2018-Feb-19 13:52N 01°14' E 103°26'512.3
2018-Feb-19 13:29N 01°13' E 103°30'612.3
2018-Feb-19 13:00N 01°12' E 103°36'613.2
2018-Feb-19 12:30N 01°09' E 103°42'612.1
2018-Feb-19 11:59N 01°11' E 103°48'613.3
2018-Feb-19 11:30N 01°13' E 103°54'  
Track history (hours):
 
Tides and Currents Weather Stations Pressure Air Temp Water Temp Dewpoint Dewpoint Depression Visibility Wind Speed Wind Dir Waves Ship Positions

Abadi

Last reported at 2018-Feb-22 14:49 UTC. Time now 2018-Feb-22 15:19 UTC.
Position N 01°12' E 103°40'.

Type: Ship (hazmat cat A). MMSI: 508011000.

Date/timePositionNaut miles runAvg speedWind from/ knotsBaromVisibWave heightAir tempDewpointWater temp
2018-Feb-22 14:49N 01°12' E 103°40'0 0.0
2018-Feb-22 14:25N 01°12' E 103°40'0 0.0
2018-Feb-22 13:49N 01°12' E 103°40'0 0.0
2018-Feb-22 12:54N 01°12' E 103°40'0 0.0
2018-Feb-22 12:30N 01°12' E 103°40'0 0.0
2018-Feb-22 11:57N 01°12' E 103°40'0 0.0
2018-Feb-22 11:30N 01°12' E 103°40'0 0.0
2018-Feb-22 10:59N 01°12' E 103°40'0 0.0
2018-Feb-22 10:29N 01°12' E 103°40'0 0.1
2018-Feb-22 09:59N 01°12' E 103°40'0 0.0
2018-Feb-22 09:29N 01°12' E 103°40'0 0.1
2018-Feb-22 08:55N 01°12' E 103°40'0 0.1
2018-Feb-22 08:25N 01°12' E 103°40'0 0.1
2018-Feb-22 07:55N 01°12' E 103°41'0 0.0
2018-Feb-22 07:28N 01°12' E 103°41'0 0.1
2018-Feb-22 06:49N 01°12' E 103°40'0 0.0
2018-Feb-22 06:30N 01°12' E 103°40'0 0.0
2018-Feb-22 06:00N 01°12' E 103°40'0 0.1
2018-Feb-22 05:30N 01°12' E 103°40'0 0.1
2018-Feb-22 04:57N 01°12' E 103°40'0 0.0
2018-Feb-22 04:27N 01°12' E 103°40'0 0.2
2018-Feb-22 03:59N 01°12' E 103°40'0 0.0
2018-Feb-22 03:27N 01°12' E 103°40'0 0.1
2018-Feb-22 02:56N 01°12' E 103°40'0 0.1
2018-Feb-22 02:29N 01°12' E 103°40'0 0.1
2018-Feb-22 01:58N 01°12' E 103°40'0 0.0
2018-Feb-22 01:28N 01°12' E 103°40'0 0.1
2018-Feb-22 00:55N 01°12' E 103°41'0 0.1
2018-Feb-22 00:25N 01°12' E 103°41'0 0.0
2018-Feb-21 23:58N 01°12' E 103°41'0 0.0
2018-Feb-21 23:30N 01°12' E 103°41'0 0.2
2018-Feb-21 23:00N 01°12' E 103°41'1 1.5
2018-Feb-21 22:30N 01°12' E 103°40'3 6.0
2018-Feb-21 22:00N 01°12' E 103°37'2 4.2
2018-Feb-21 21:29N 01°12' E 103°35'2 3.7
2018-Feb-21 20:59N 01°11' E 103°33'2 4.8
2018-Feb-21 20:30N 01°11' E 103°31'4 6.4
2018-Feb-21 19:55N 01°11' E 103°27'5 7.3
2018-Feb-21 19:17N 01°13' E 103°23'3 8.1
2018-Feb-21 18:52N 01°15' E 103°20'  
2018-Feb-19 14:15N 01°17' E 103°22'411.7
2018-Feb-19 13:52N 01°14' E 103°26'512.3
2018-Feb-19 13:29N 01°13' E 103°30'612.3
2018-Feb-19 13:00N 01°12' E 103°36'613.2
2018-Feb-19 12:30N 01°09' E 103°42'612.1
2018-Feb-19 11:59N 01°11' E 103°48'613.3
2018-Feb-19 11:30N 01°13' E 103°54'  

Dump ship's entire track history